sensor_id;sensor_type;location;lat;lon;timestamp;pressure;altitude;pressure_sealevel;temperature;humidity
64460;BME280;50828;53.756;21.140;2023-03-22T00:00:25;99760.61;;;1.07;66.38
64460;BME280;50828;53.756;21.140;2023-03-22T00:05:34;99762.36;;;1.05;66.42
64460;BME280;50828;53.756;21.140;2023-03-22T00:10:42;99749.71;;;1.04;66.52
64460;BME280;50828;53.756;21.140;2023-03-22T00:15:49;99728.27;;;0.96;66.55
64460;BME280;50828;53.756;21.140;2023-03-22T00:20:58;99735.48;;;1.06;66.80
64460;BME280;50828;53.756;21.140;2023-03-22T00:26:06;99729.04;;;1.07;67.02
64460;BME280;50828;53.756;21.140;2023-03-22T00:31:14;99723.11;;;1.11;67.18
64460;BME280;50828;53.756;21.140;2023-03-22T00:36:22;99723.27;;;1.14;67.19
64460;BME280;50828;53.756;21.140;2023-03-22T00:41:30;99725.52;;;1.16;67.29
64460;BME280;50828;53.756;21.140;2023-03-22T00:46:37;99719.23;;;1.19;67.47
64460;BME280;50828;53.756;21.140;2023-03-22T00:51:45;99718.84;;;1.24;67.51
64460;BME280;50828;53.756;21.140;2023-03-22T00:56:52;99721.23;;;1.30;67.62
64460;BME280;50828;53.756;21.140;2023-03-22T01:02:00;99714.61;;;1.34;67.77
64460;BME280;50828;53.756;21.140;2023-03-22T01:07:09;99710.91;;;1.39;67.60
64460;BME280;50828;53.756;21.140;2023-03-22T01:12:22;99714.65;;;1.48;67.70
64460;BME280;50828;53.756;21.140;2023-03-22T01:17:30;99711.59;;;1.59;68.14
64460;BME280;50828;53.756;21.140;2023-03-22T01:22:38;99706.80;;;1.70;68.44
64460;BME280;50828;53.756;21.140;2023-03-22T01:27:45;99706.48;;;1.83;68.64
64460;BME280;50828;53.756;21.140;2023-03-22T01:32:53;99699.42;;;1.93;68.71
64460;BME280;50828;53.756;21.140;2023-03-22T01:38:00;99692.15;;;2.05;68.60
64460;BME280;50828;53.756;21.140;2023-03-22T01:43:15;99684.94;;;2.13;68.62
64460;BME280;50828;53.756;21.140;2023-03-22T01:48:26;99662.02;;;2.13;68.66
64460;BME280;50828;53.756;21.140;2023-03-22T01:53:37;99671.86;;;2.30;68.63
64460;BME280;50828;53.756;21.140;2023-03-22T01:58:47;99667.73;;;2.40;68.69
64460;BME280;50828;53.756;21.140;2023-03-22T02:04:00;99654.06;;;2.47;68.80
64460;BME280;50828;53.756;21.140;2023-03-22T02:09:11;99648.60;;;2.53;68.88
64460;BME280;50828;53.756;21.140;2023-03-22T02:14:44;99648.48;;;2.60;68.74
64460;BME280;50828;53.756;21.140;2023-03-22T02:32:11;99640.23;;;2.77;68.77
64460;BME280;50828;53.756;21.140;2023-03-22T02:43:20;99637.36;;;2.82;68.54
64460;BME280;50828;53.756;21.140;2023-03-22T02:48:39;99633.56;;;2.80;68.52
64460;BME280;50828;53.756;21.140;2023-03-22T02:53:52;99630.77;;;2.81;68.60
64460;BME280;50828;53.756;21.140;2023-03-22T02:59:04;99628.02;;;2.81;68.84
64460;BME280;50828;53.756;21.140;2023-03-22T03:04:18;99624.35;;;2.80;68.77
64460;BME280;50828;53.756;21.140;2023-03-22T03:09:28;99620.53;;;2.80;68.97
64460;BME280;50828;53.756;21.140;2023-03-22T03:14:37;99619.64;;;2.81;68.82
64460;BME280;50828;53.756;21.140;2023-03-22T03:19:56;99614.77;;;2.82;68.92
64460;BME280;50828;53.756;21.140;2023-03-22T03:25:11;99613.01;;;2.82;68.95
64460;BME280;50828;53.756;21.140;2023-03-22T03:30:27;99610.75;;;2.82;69.06
64460;BME280;50828;53.756;21.140;2023-03-22T03:35:39;99610.11;;;2.80;69.13
64460;BME280;50828;53.756;21.140;2023-03-22T03:40:53;99615.32;;;2.79;69.04
64460;BME280;50828;53.756;21.140;2023-03-22T03:46:02;99622.80;;;2.80;68.93
64460;BME280;50828;53.756;21.140;2023-03-22T03:51:10;99622.61;;;2.81;68.89
64460;BME280;50828;53.756;21.140;2023-03-22T03:56:18;99618.10;;;2.80;69.14
64460;BME280;50828;53.756;21.140;2023-03-22T04:01:26;99615.85;;;2.79;68.95
64460;BME280;50828;53.756;21.140;2023-03-22T04:06:42;99615.34;;;2.78;69.25
64460;BME280;50828;53.756;21.140;2023-03-22T04:11:57;99613.55;;;2.81;69.21
64460;BME280;50828;53.756;21.140;2023-03-22T04:17:05;99606.73;;;2.83;69.32
64460;BME280;50828;53.756;21.140;2023-03-22T04:22:13;99601.16;;;2.84;69.25
64460;BME280;50828;53.756;21.140;2023-03-22T04:27:23;99603.05;;;2.86;69.29
64460;BME280;50828;53.756;21.140;2023-03-22T04:32:38;99601.33;;;2.84;69.29
64460;BME280;50828;53.756;21.140;2023-03-22T04:37:47;99603.90;;;2.86;69.33
64460;BME280;50828;53.756;21.140;2023-03-22T04:42:59;99603.88;;;2.87;69.29
64460;BME280;50828;53.756;21.140;2023-03-22T04:48:20;99594.16;;;2.86;69.45
64460;BME280;50828;53.756;21.140;2023-03-22T04:53:28;99595.73;;;2.86;69.51
64460;BME280;50828;53.756;21.140;2023-03-22T04:58:40;99593.47;;;2.86;69.63
64460;BME280;50828;53.756;21.140;2023-03-22T05:03:50;99592.58;;;2.88;69.78
64460;BME280;50828;53.756;21.140;2023-03-22T05:08:59;99593.55;;;2.91;69.76
64460;BME280;50828;53.756;21.140;2023-03-22T05:14:08;99596.26;;;2.96;69.97
64460;BME280;50828;53.756;21.140;2023-03-22T05:19:18;99593.04;;;3.01;69.98
64460;BME280;50828;53.756;21.140;2023-03-22T05:24:28;99593.44;;;3.08;70.00
64460;BME280;50828;53.756;21.140;2023-03-22T05:29:38;99588.77;;;3.16;69.89
64460;BME280;50828;53.756;21.140;2023-03-22T05:34:56;99584.46;;;3.23;70.09
64460;BME280;50828;53.756;21.140;2023-03-22T05:40:12;99583.39;;;3.33;70.18
64460;BME280;50828;53.756;21.140;2023-03-22T05:45:21;99587.80;;;3.48;70.30
64460;BME280;50828;53.756;21.140;2023-03-22T05:50:39;99585.92;;;3.64;70.71
64460;BME280;50828;53.756;21.140;2023-03-22T05:55:47;99587.65;;;3.82;70.84
64460;BME280;50828;53.756;21.140;2023-03-22T06:00:55;99581.40;;;3.97;70.71
64460;BME280;50828;53.756;21.140;2023-03-22T06:06:35;99576.85;;;4.14;70.92
64460;BME280;50828;53.756;21.140;2023-03-22T06:11:49;99573.45;;;4.26;70.58
64460;BME280;50828;53.756;21.140;2023-03-22T06:16:57;99570.40;;;4.37;70.54
64460;BME280;50828;53.756;21.140;2023-03-22T06:22:05;99572.41;;;4.48;70.74
64460;BME280;50828;53.756;21.140;2023-03-22T06:27:13;99570.09;;;4.57;70.77
64460;BME280;50828;53.756;21.140;2023-03-22T06:32:21;99569.01;;;4.66;70.80
64460;BME280;50828;53.756;21.140;2023-03-22T06:37:29;99567.43;;;4.80;71.01
64460;BME280;50828;53.756;21.140;2023-03-22T06:42:38;99568.91;;;4.97;71.24
64460;BME280;50828;53.756;21.140;2023-03-22T06:47:48;99568.30;;;5.15;70.94
64460;BME280;50828;53.756;21.140;2023-03-22T06:53:06;99560.89;;;5.30;71.19
64460;BME280;50828;53.756;21.140;2023-03-22T06:58:14;99557.07;;;5.48;71.02
64460;BME280;50828;53.756;21.140;2023-03-22T07:03:21;99557.51;;;5.64;70.78
64460;BME280;50828;53.756;21.140;2023-03-22T07:08:33;99555.35;;;5.78;70.93
64460;BME280;50828;53.756;21.140;2023-03-22T07:13:42;99553.77;;;5.90;70.61
64460;BME280;50828;53.756;21.140;2023-03-22T07:18:54;99551.95;;;6.05;70.90
64460;BME280;50828;53.756;21.140;2023-03-22T07:24:02;99545.55;;;6.20;70.58
64460;BME280;50828;53.756;21.140;2023-03-22T07:29:13;99541.41;;;6.34;70.45
64460;BME280;50828;53.756;21.140;2023-03-22T07:34:21;99530.90;;;6.52;70.44
64460;BME280;50828;53.756;21.140;2023-03-22T07:39:38;99518.33;;;6.71;70.51
64460;BME280;50828;53.756;21.140;2023-03-22T07:44:46;99523.29;;;6.91;70.55
64460;BME280;50828;53.756;21.140;2023-03-22T07:49:57;99518.33;;;7.08;70.00
64460;BME280;50828;53.756;21.140;2023-03-22T07:55:11;99514.52;;;7.21;69.78
64460;BME280;50828;53.756;21.140;2023-03-22T08:05:48;99509.46;;;7.49;69.64
64460;BME280;50828;53.756;21.140;2023-03-22T08:10:57;99502.64;;;7.63;69.75
64460;BME280;50828;53.756;21.140;2023-03-22T08:16:06;99498.36;;;7.74;69.30
64460;BME280;50828;53.756;21.140;2023-03-22T08:21:15;99494.70;;;7.87;69.22
64460;BME280;50828;53.756;21.140;2023-03-22T08:26:27;99492.73;;;7.98;68.83
64460;BME280;50828;53.756;21.140;2023-03-22T08:31:39;99493.79;;;8.06;68.71
64460;BME280;50828;53.756;21.140;2023-03-22T08:36:47;99493.88;;;8.13;68.66
64460;BME280;50828;53.756;21.140;2023-03-22T08:41:55;99491.24;;;8.22;68.91
64460;BME280;50828;53.756;21.140;2023-03-22T08:47:04;99484.52;;;8.32;68.77
64460;BME280;50828;53.756;21.140;2023-03-22T08:52:12;99482.50;;;8.43;69.03
64460;BME280;50828;53.756;21.140;2023-03-22T08:57:32;99475.72;;;8.50;68.95
64460;BME280;50828;53.756;21.140;2023-03-22T09:03:02;99470.55;;;8.56;68.96
64460;BME280;50828;53.756;21.140;2023-03-22T09:08:11;99464.30;;;8.59;69.10
64460;BME280;50828;53.756;21.140;2023-03-22T09:13:28;99464.09;;;8.60;68.98
64460;BME280;50828;53.756;21.140;2023-03-22T09:18:38;99459.68;;;8.60;69.11
64460;BME280;50828;53.756;21.140;2023-03-22T09:23:49;99461.02;;;8.62;69.00
64460;BME280;50828;53.756;21.140;2023-03-22T09:28:59;99452.73;;;8.62;69.13
64460;BME280;50828;53.756;21.140;2023-03-22T09:34:07;99449.12;;;8.61;69.38
64460;BME280;50828;53.756;21.140;2023-03-22T09:39:16;99448.47;;;8.60;69.35
64460;BME280;50828;53.756;21.140;2023-03-22T09:44:31;99444.80;;;8.59;69.49
64460;BME280;50828;53.756;21.140;2023-03-22T09:49:43;99440.35;;;8.57;69.59
64460;BME280;50828;53.756;21.140;2023-03-22T09:54:59;99437.83;;;8.54;69.43
64460;BME280;50828;53.756;21.140;2023-03-22T10:00:19;99442.43;;;8.53;69.74
64460;BME280;50828;53.756;21.140;2023-03-22T10:05:33;99442.85;;;8.56;69.87
64460;BME280;50828;53.756;21.140;2023-03-22T10:10:43;99435.83;;;8.56;69.89
64460;BME280;50828;53.756;21.140;2023-03-22T10:15:52;99436.02;;;8.55;70.00
64460;BME280;50828;53.756;21.140;2023-03-22T10:21:03;99429.77;;;8.54;70.02
64460;BME280;50828;53.756;21.140;2023-03-22T10:26:19;99432.92;;;8.58;70.21
64460;BME280;50828;53.756;21.140;2023-03-22T10:31:29;99424.02;;;8.61;70.14
64460;BME280;50828;53.756;21.140;2023-03-22T10:36:39;99418.17;;;8.62;70.23
64460;BME280;50828;53.756;21.140;2023-03-22T10:41:48;99415.42;;;8.65;70.48
64460;BME280;50828;53.756;21.140;2023-03-22T10:46:58;99405.98;;;8.69;70.86
64460;BME280;50828;53.756;21.140;2023-03-22T10:52:22;99400.88;;;8.73;70.81
64460;BME280;50828;53.756;21.140;2023-03-22T10:57:36;99396.96;;;8.78;71.11
64460;BME280;50828;53.756;21.140;2023-03-22T11:02:53;99388.87;;;8.82;71.22
64460;BME280;50828;53.756;21.140;2023-03-22T11:08:12;99392.91;;;8.87;71.05
64460;BME280;50828;53.756;21.140;2023-03-22T11:13:21;99390.75;;;8.87;71.28
64460;BME280;50828;53.756;21.140;2023-03-22T11:18:32;99391.53;;;8.90;71.10
64460;BME280;50828;53.756;21.140;2023-03-22T11:23:43;99385.63;;;8.92;71.23
64460;BME280;50828;53.756;21.140;2023-03-22T11:34:24;99382.93;;;8.93;71.07
64460;BME280;50828;53.756;21.140;2023-03-22T11:39:33;99379.64;;;8.92;70.95
64460;BME280;50828;53.756;21.140;2023-03-22T11:44:42;99378.46;;;8.91;71.04
64460;BME280;50828;53.756;21.140;2023-03-22T11:49:52;99375.31;;;8.91;71.17
64460;BME280;50828;53.756;21.140;2023-03-22T11:55:03;99369.38;;;8.90;71.27
64460;BME280;50828;53.756;21.140;2023-03-22T12:00:19;99370.60;;;8.90;71.07
64460;BME280;50828;53.756;21.140;2023-03-22T12:05:32;99373.34;;;8.92;71.37
64460;BME280;50828;53.756;21.140;2023-03-22T12:10:42;99375.50;;;8.94;71.59
64460;BME280;50828;53.756;21.140;2023-03-22T12:15:54;99367.36;;;8.96;71.60
64460;BME280;50828;53.756;21.140;2023-03-22T12:21:04;99362.05;;;8.97;71.83
64460;BME280;50828;53.756;21.140;2023-03-22T12:26:16;99362.73;;;9.01;71.60
64460;BME280;50828;53.756;21.140;2023-03-22T12:31:31;99360.18;;;9.03;71.51
64460;BME280;50828;53.756;21.140;2023-03-22T12:36:47;99349.52;;;9.06;71.77
64460;BME280;50828;53.756;21.140;2023-03-22T12:41:59;99349.95;;;9.08;71.49
64460;BME280;50828;53.756;21.140;2023-03-22T12:47:15;99348.11;;;9.10;71.79
64460;BME280;50828;53.756;21.140;2023-03-22T12:52:32;99344.13;;;9.12;71.64
64460;BME280;50828;53.756;21.140;2023-03-22T12:57:52;99341.38;;;9.15;71.89
64460;BME280;50828;53.756;21.140;2023-03-22T13:03:05;99328.48;;;9.16;71.77
64460;BME280;50828;53.756;21.140;2023-03-22T13:08:19;99332.41;;;9.18;71.67
64460;BME280;50828;53.756;21.140;2023-03-22T13:13:51;99333.90;;;9.21;71.64
64460;BME280;50828;53.756;21.140;2023-03-22T13:19:01;99330.30;;;9.23;72.01
64460;BME280;50828;53.756;21.140;2023-03-22T13:24:25;99328.84;;;9.24;71.73
64460;BME280;50828;53.756;21.140;2023-03-22T13:29:36;99324.95;;;9.25;71.91
64460;BME280;50828;53.756;21.140;2023-03-22T13:34:50;99317.80;;;9.23;71.60
64460;BME280;50828;53.756;21.140;2023-03-22T13:39:59;99320.98;;;9.26;71.91
64460;BME280;50828;53.756;21.140;2023-03-22T13:45:31;99322.79;;;9.29;71.81
64460;BME280;50828;53.756;21.140;2023-03-22T13:50:39;99321.27;;;9.31;72.23
64460;BME280;50828;53.756;21.140;2023-03-22T13:55:59;99311.45;;;9.27;72.07
64460;BME280;50828;53.756;21.140;2023-03-22T14:01:11;99321.78;;;9.35;72.07
64460;BME280;50828;53.756;21.140;2023-03-22T14:06:24;99319.33;;;9.39;72.26
64460;BME280;50828;53.756;21.140;2023-03-22T14:11:42;99316.86;;;9.39;72.21
64460;BME280;50828;53.756;21.140;2023-03-22T14:17:01;99312.81;;;9.39;72.07
64460;BME280;50828;53.756;21.140;2023-03-22T14:22:16;99309.36;;;9.42;72.09
64460;BME280;50828;53.756;21.140;2023-03-22T14:27:25;99308.91;;;9.44;72.27
64460;BME280;50828;53.756;21.140;2023-03-22T14:32:33;99306.20;;;9.45;72.31
64460;BME280;50828;53.756;21.140;2023-03-22T14:37:42;99298.73;;;9.47;72.48
64460;BME280;50828;53.756;21.140;2023-03-22T14:42:50;99293.23;;;9.48;72.34
64460;BME280;50828;53.756;21.140;2023-03-22T14:47:57;99289.13;;;9.50;72.25
64460;BME280;50828;53.756;21.140;2023-03-22T14:53:04;99282.45;;;9.49;72.25
64460;BME280;50828;53.756;21.140;2023-03-22T14:58:13;99280.06;;;9.51;72.32
64460;BME280;50828;53.756;21.140;2023-03-22T15:03:27;99278.41;;;9.53;72.58
64460;BME280;50828;53.756;21.140;2023-03-22T15:08:36;99271.55;;;9.53;72.57
64460;BME280;50828;53.756;21.140;2023-03-22T15:13:45;99268.14;;;9.54;72.50
64460;BME280;50828;53.756;21.140;2023-03-22T15:18:54;99260.20;;;9.55;72.67
64460;BME280;50828;53.756;21.140;2023-03-22T15:24:19;99258.11;;;9.54;72.65
64460;BME280;50828;53.756;21.140;2023-03-22T15:29:29;99253.41;;;9.54;72.46
64460;BME280;50828;53.756;21.140;2023-03-22T15:34:40;99252.69;;;9.54;72.53
64460;BME280;50828;53.756;21.140;2023-03-22T15:39:48;99249.49;;;9.55;72.61
64460;BME280;50828;53.756;21.140;2023-03-22T15:44:59;99252.65;;;9.55;72.65
64460;BME280;50828;53.756;21.140;2023-03-22T15:50:08;99243.27;;;9.52;72.71
64460;BME280;50828;53.756;21.140;2023-03-22T15:55:17;99242.28;;;9.52;72.89
64460;BME280;50828;53.756;21.140;2023-03-22T16:00:28;99241.30;;;9.53;72.93
64460;BME280;50828;53.756;21.140;2023-03-22T16:05:38;99238.24;;;9.54;73.09
64460;BME280;50828;53.756;21.140;2023-03-22T16:10:46;99237.04;;;9.58;72.90
64460;BME280;50828;53.756;21.140;2023-03-22T16:15:53;99231.12;;;9.60;73.16
64460;BME280;50828;53.756;21.140;2023-03-22T16:21:03;99228.39;;;9.59;72.95
64460;BME280;50828;53.756;21.140;2023-03-22T16:26:13;99234.05;;;9.58;72.99
64460;BME280;50828;53.756;21.140;2023-03-22T16:31:21;99235.08;;;9.59;73.19
64460;BME280;50828;53.756;21.140;2023-03-22T16:36:29;99239.10;;;9.59;73.17
64460;BME280;50828;53.756;21.140;2023-03-22T16:41:41;99249.23;;;9.61;72.97
64460;BME280;50828;53.756;21.140;2023-03-22T16:46:48;99253.42;;;9.64;73.02
64460;BME280;50828;53.756;21.140;2023-03-22T16:51:55;99256.52;;;9.66;73.03
64460;BME280;50828;53.756;21.140;2023-03-22T16:57:03;99260.25;;;9.68;72.98
64460;BME280;50828;53.756;21.140;2023-03-22T17:02:14;99260.20;;;9.69;73.05
64460;BME280;50828;53.756;21.140;2023-03-22T17:07:23;99251.75;;;9.69;72.84
64460;BME280;50828;53.756;21.140;2023-03-22T17:12:33;99249.77;;;9.70;73.10
64460;BME280;50828;53.756;21.140;2023-03-22T17:17:40;99251.52;;;9.70;72.83
64460;BME280;50828;53.756;21.140;2023-03-22T17:22:47;99252.06;;;9.70;72.95
64460;BME280;50828;53.756;21.140;2023-03-22T17:27:54;99252.09;;;9.70;72.92
64460;BME280;50828;53.756;21.140;2023-03-22T17:33:02;99255.19;;;9.68;73.02
64460;BME280;50828;53.756;21.140;2023-03-22T17:38:09;99254.93;;;9.66;73.02
64460;BME280;50828;53.756;21.140;2023-03-22T17:43:17;99248.65;;;9.65;72.81
64460;BME280;50828;53.756;21.140;2023-03-22T17:48:24;99248.53;;;9.64;72.84
64460;BME280;50828;53.756;21.140;2023-03-22T17:53:33;99258.35;;;9.64;72.85
64460;BME280;50828;53.756;21.140;2023-03-22T17:58:39;99269.05;;;9.64;72.56
64460;BME280;50828;53.756;21.140;2023-03-22T18:03:45;99263.31;;;9.63;73.04
64460;BME280;50828;53.756;21.140;2023-03-22T18:08:53;99254.61;;;9.62;72.85
64460;BME280;50828;53.756;21.140;2023-03-22T18:14:00;99246.33;;;9.62;73.07
64460;BME280;50828;53.756;21.140;2023-03-22T18:19:06;99247.08;;;9.61;72.82
64460;BME280;50828;53.756;21.140;2023-03-22T18:24:13;99248.27;;;9.62;72.88
64460;BME280;50828;53.756;21.140;2023-03-22T18:29:21;99245.17;;;9.64;72.85
64460;BME280;50828;53.756;21.140;2023-03-22T18:34:28;99242.98;;;9.65;72.85
64460;BME280;50828;53.756;21.140;2023-03-22T18:39:35;99239.92;;;9.67;72.69
64460;BME280;50828;53.756;21.140;2023-03-22T18:44:43;99237.29;;;9.67;72.74
64460;BME280;50828;53.756;21.140;2023-03-22T18:49:49;99232.46;;;9.65;72.89
64460;BME280;50828;53.756;21.140;2023-03-22T18:54:57;99238.87;;;9.67;72.77
64460;BME280;50828;53.756;21.140;2023-03-22T19:00:06;99235.63;;;9.68;73.02
64460;BME280;50828;53.756;21.140;2023-03-22T19:05:13;99233.94;;;9.70;73.09
64460;BME280;50828;53.756;21.140;2023-03-22T19:10:20;99224.73;;;9.71;72.99
64460;BME280;50828;53.756;21.140;2023-03-22T19:15:26;99224.73;;;9.75;73.03
64460;BME280;50828;53.756;21.140;2023-03-22T19:20:33;99215.67;;;9.77;72.56
64460;BME280;50828;53.756;21.140;2023-03-22T19:25:40;99222.66;;;9.82;72.83
64460;BME280;50828;53.756;21.140;2023-03-22T19:30:48;99217.48;;;9.83;72.74
64460;BME280;50828;53.756;21.140;2023-03-22T19:35:56;99213.51;;;9.85;72.74
64460;BME280;50828;53.756;21.140;2023-03-22T19:41:04;99204.65;;;9.87;72.51
64460;BME280;50828;53.756;21.140;2023-03-22T19:46:14;99198.28;;;9.87;72.59
64460;BME280;50828;53.756;21.140;2023-03-22T19:51:22;99189.83;;;9.88;72.45
64460;BME280;50828;53.756;21.140;2023-03-22T19:56:28;99185.53;;;9.89;72.61
64460;BME280;50828;53.756;21.140;2023-03-22T20:01:35;99187.40;;;9.90;72.47
64460;BME280;50828;53.756;21.140;2023-03-22T20:06:42;99181.34;;;9.91;72.36
64460;BME280;50828;53.756;21.140;2023-03-22T20:11:50;99178.05;;;9.90;72.08
64460;BME280;50828;53.756;21.140;2023-03-22T20:16:57;99173.29;;;9.88;72.02
64460;BME280;50828;53.756;21.140;2023-03-22T20:22:03;99172.13;;;9.86;72.12
64460;BME280;50828;53.756;21.140;2023-03-22T20:27:11;99168.30;;;9.85;71.99
64460;BME280;50828;53.756;21.140;2023-03-22T20:32:18;99167.11;;;9.85;71.91
64460;BME280;50828;53.756;21.140;2023-03-22T20:37:26;99167.85;;;9.84;72.06
64460;BME280;50828;53.756;21.140;2023-03-22T20:42:33;99170.77;;;9.86;71.98
64460;BME280;50828;53.756;21.140;2023-03-22T20:47:40;99164.20;;;9.87;72.02
64460;BME280;50828;53.756;21.140;2023-03-22T20:52:46;99156.46;;;9.86;71.65
64460;BME280;50828;53.756;21.140;2023-03-22T20:57:53;99149.04;;;9.87;71.53
64460;BME280;50828;53.756;21.140;2023-03-22T21:03:01;99149.09;;;9.86;72.01
64460;BME280;50828;53.756;21.140;2023-03-22T21:08:08;99148.20;;;9.87;71.75
64460;BME280;50828;53.756;21.140;2023-03-22T21:13:15;99141.91;;;9.86;71.60
64460;BME280;50828;53.756;21.140;2023-03-22T21:18:21;99141.83;;;9.84;71.32
64460;BME280;50828;53.756;21.140;2023-03-22T21:23:28;99134.19;;;9.82;71.62
64460;BME280;50828;53.756;21.140;2023-03-22T21:28:35;99131.70;;;9.83;71.77
64460;BME280;50828;53.756;21.140;2023-03-22T21:33:42;99135.42;;;9.82;71.69
64460;BME280;50828;53.756;21.140;2023-03-22T21:38:50;99134.06;;;9.82;71.23
64460;BME280;50828;53.756;21.140;2023-03-22T21:43:58;99128.02;;;9.83;71.24
64460;BME280;50828;53.756;21.140;2023-03-22T21:49:05;99125.92;;;9.82;71.54
64460;BME280;50828;53.756;21.140;2023-03-22T21:54:13;99126.11;;;9.82;71.76
64460;BME280;50828;53.756;21.140;2023-03-22T21:59:21;99126.59;;;9.83;71.07
64460;BME280;50828;53.756;21.140;2023-03-22T22:04:28;99122.21;;;9.83;71.38
64460;BME280;50828;53.756;21.140;2023-03-22T22:09:36;99109.87;;;9.80;71.26
64460;BME280;50828;53.756;21.140;2023-03-22T22:14:42;99112.67;;;9.80;71.19
64460;BME280;50828;53.756;21.140;2023-03-22T22:19:49;99104.65;;;9.79;71.28
64460;BME280;50828;53.756;21.140;2023-03-22T22:24:53;99104.37;;;9.78;71.19
64460;BME280;50828;53.756;21.140;2023-03-22T22:30:18;99099.45;;;9.77;71.22
64460;BME280;50828;53.756;21.140;2023-03-22T22:35:24;99095.92;;;9.78;70.95
64460;BME280;50828;53.756;21.140;2023-03-22T22:40:30;99096.45;;;9.78;71.18
64460;BME280;50828;53.756;21.140;2023-03-22T22:45:37;99086.14;;;9.73;70.95
64460;BME280;50828;53.756;21.140;2023-03-22T22:50:44;99091.86;;;9.74;70.87
64460;BME280;50828;53.756;21.140;2023-03-22T22:55:51;99083.21;;;9.71;71.17
64460;BME280;50828;53.756;21.140;2023-03-22T23:00:58;99081.69;;;9.71;71.04
64460;BME280;50828;53.756;21.140;2023-03-22T23:06:10;99080.80;;;9.70;71.29
64460;BME280;50828;53.756;21.140;2023-03-22T23:11:19;99077.71;;;9.69;71.12
64460;BME280;50828;53.756;21.140;2023-03-22T23:16:26;99075.66;;;9.68;70.85
64460;BME280;50828;53.756;21.140;2023-03-22T23:21:35;99076.97;;;9.70;70.89
64460;BME280;50828;53.756;21.140;2023-03-22T23:26:45;99069.14;;;9.68;70.76
64460;BME280;50828;53.756;21.140;2023-03-22T23:31:52;99066.17;;;9.65;70.92
64460;BME280;50828;53.756;21.140;2023-03-22T23:36:59;99072.44;;;9.66;71.10
64460;BME280;50828;53.756;21.140;2023-03-22T23:42:06;99068.80;;;9.65;70.88
64460;BME280;50828;53.756;21.140;2023-03-22T23:47:14;99068.60;;;9.65;70.91
64460;BME280;50828;53.756;21.140;2023-03-22T23:52:21;99067.63;;;9.64;70.93
64460;BME280;50828;53.756;21.140;2023-03-22T23:57:28;99067.81;;;9.64;70.91
